Time;durP1;ratioP1;P1;durP2;ratioP2;P2;SDS_P1;SDS_P2;PMS_P1;PMS_P2;Temp;Humidity;BMP_temperature;BMP_pressure;BME280_temperature;BME280_humidity;BME280_pressure;Samples;Min_cycle;Max_cycle;Signal;HPM_P1;HPM_P2
2021/11/20 00:02:08;;;;;;;3.93;3.63;;;;;;;20.26;54.74;98727.56;5014174;28;20226;-68
2021/11/20 00:04:35;;;;;;;3.90;3.50;;;;;;;20.43;54.70;98764.19;5010252;28;20705;-68
2021/11/20 00:07:03;;;;;;;4.13;3.73;;;;;;;20.44;54.80;98756.63;5017405;28;20278;-68
2021/11/20 00:09:30;;;;;;;3.70;3.40;;;;;;;20.36;54.66;98742.56;5018361;28;20253;-67
2021/11/20 00:12:01;;;;;;;4.53;4.00;;;;;;;20.44;54.72;98753.19;5019608;28;20233;-70
2021/11/20 00:14:29;;;;;;;4.07;3.67;;;;;;;20.44;54.70;98761.72;5000583;28;20195;-68
2021/11/20 00:16:56;;;;;;;4.03;3.63;;;;;;;20.44;54.75;98756.63;5011269;28;20257;-68
2021/11/20 00:19:23;;;;;;;4.10;3.70;;;;;;;20.44;54.79;98756.63;5012025;28;20249;-68
2021/11/20 00:22:11;;;;;;;3.90;3.53;;;;;;;20.44;54.75;98755.72;5006054;28;20233;-68
2021/11/20 00:24:47;;;;;;;4.30;3.90;;;;;;;20.44;54.69;98761.72;5011379;28;20256;-67
2021/11/20 00:27:21;;;;;;;3.97;3.57;;;;;;;20.36;54.61;98749.31;5011780;28;20278;-68
2021/11/20 00:32:39;;;;;;;4.33;3.93;;;;;;;20.18;54.72;98721.16;5009837;28;20237;-68
2021/11/20 00:35:08;;;;;;;4.23;3.83;;;;;;;20.11;54.73;98703.75;5016985;28;20241;-70
2021/11/20 00:37:34;;;;;;;3.97;3.67;;;;;;;20.44;54.80;98753.19;5012924;28;20280;-67
2021/11/20 00:40:03;;;;;;;4.07;3.70;;;;;;;20.42;54.83;98752.22;5018480;28;20236;-70
2021/11/20 00:42:29;;;;;;;3.97;3.60;;;;;;;20.44;54.71;98761.72;5017092;28;20202;-70
2021/11/20 00:44:56;;;;;;;4.00;3.60;;;;;;;20.44;54.88;98748.97;5016780;28;20297;-71
2021/11/20 00:47:23;;;;;;;4.60;3.90;;;;;;;20.35;54.68;98743.38;5017127;28;20232;-68
2021/11/20 00:49:50;;;;;;;3.93;3.63;;;;;;;20.42;54.75;98753.09;5016958;28;20241;-67
2021/11/20 00:52:17;;;;;;;4.43;4.03;;;;;;;20.44;54.85;98758.28;5018050;28;20202;-69
2021/11/20 00:54:44;;;;;;;4.10;3.70;;;;;;;20.44;54.80;98753.19;5020171;28;20662;-67
2021/11/20 00:57:10;;;;;;;4.20;3.73;;;;;;;20.04;54.83;98682.91;5019231;28;20222;-70
2021/11/20 00:59:37;;;;;;;3.70;3.40;;;;;;;20.33;54.89;98732.19;5020348;28;20262;-68
2021/11/20 01:02:04;;;;;;;4.00;3.60;;;;;;;20.45;54.70;98749.81;5014057;28;20284;-67
2021/11/20 01:04:32;;;;;;;3.97;3.57;;;;;;;20.40;54.61;98749.56;5011172;28;20202;-67
2021/11/20 01:06:59;;;;;;;4.23;3.83;;;;;;;20.28;54.70;98715.72;5017558;28;20686;-65
2021/11/20 01:09:30;;;;;;;3.80;3.50;;;;;;;20.46;54.75;98749.03;5019503;28;20249;-68
2021/11/20 01:12:14;;;;;;;4.40;3.67;;;;;;;20.42;54.87;98737.78;5016748;28;20233;-68
2021/11/20 01:14:42;;;;;;;4.10;3.70;;;;;;;20.18;54.61;98700.75;5012974;28;20288;-67
2021/11/20 01:17:09;;;;;;;4.23;3.83;;;;;;;20.33;54.68;98719.41;5017520;28;20637;-68
2021/11/20 01:19:35;;;;;;;3.90;3.60;;;;;;;20.40;54.49;98728.28;5014129;28;20702;-67
2021/11/20 01:22:04;;;;;;;4.07;3.40;;;;;;;20.44;54.91;98735.31;5020426;28;20271;-67
2021/11/20 01:24:31;;;;;;;3.97;3.63;;;;;;;20.31;55.08;98715.91;5015882;28;20203;-67
2021/11/20 01:26:57;;;;;;;3.77;3.37;;;;;;;20.43;54.76;98734.41;5020071;28;20237;-66
2021/11/20 01:29:25;;;;;;;4.13;3.73;;;;;;;20.45;54.82;98739.59;5020282;28;20217;-68
2021/11/20 01:31:53;;;;;;;4.30;3.83;;;;;;;20.39;54.66;98723.97;5017722;28;20710;-68
2021/11/20 01:34:22;;;;;;;4.30;3.90;;;;;;;20.44;54.75;98730.19;5002018;28;20626;-67
2021/11/20 01:36:50;;;;;;;4.30;3.90;;;;;;;20.43;54.82;98731.84;5017929;28;20494;-67
2021/11/20 01:39:19;;;;;;;4.00;3.60;;;;;;;20.06;54.74;98669.44;5013949;28;20220;-67
2021/11/20 01:41:47;;;;;;;5.00;3.83;;;;;;;20.31;54.87;98712.50;5011743;28;20294;-68
2021/11/20 01:44:21;;;;;;;3.70;3.40;;;;;;;20.44;54.82;98725.97;5015390;28;20222;-66
2021/11/20 01:46:51;;;;;;;4.17;3.77;;;;;;;20.43;54.67;98718.25;5018435;28;20202;-66
2021/11/20 01:49:18;;;;;;;3.63;3.33;;;;;;;20.45;54.96;98724.28;5018707;28;20257;-66
2021/11/20 01:52:16;;;;;;;3.70;3.40;;;;;;;20.44;54.91;98725.09;5017101;28;20354;-66
2021/11/20 01:54:58;;;;;;;4.37;3.97;;;;;;;20.44;54.79;98717.44;4998409;28;20230;-67
2021/11/20 01:58:07;;;;;;;4.40;4.00;;;;;;;20.25;54.95;98681.53;5016976;28;20308;-66
2021/11/20 02:00:42;;;;;;;3.80;3.50;;;;;;;20.19;54.86;98669.31;5004779;28;20237;-66
2021/11/20 02:03:12;;;;;;;4.03;3.50;;;;;;;20.43;54.98;98708.03;5008607;28;20212;-66
2021/11/20 02:05:45;;;;;;;3.67;3.37;;;;;;;20.27;54.89;98677.38;5005210;28;20206;-68
2021/11/20 02:08:31;;;;;;;3.80;3.50;;;;;;;20.44;54.87;98695.34;5013514;28;20773;-69
2021/11/20 02:11:26;;;;;;;4.43;4.03;;;;;;;20.37;54.97;98680.47;5011479;28;20195;-67
2021/11/20 02:13:54;;;;;;;3.77;3.47;;;;;;;20.42;54.81;98690.94;5012762;28;20234;-66
2021/11/20 02:16:23;;;;;;;4.13;3.73;;;;;;;20.32;54.96;98674.28;5022213;28;20252;-66
2021/11/20 02:18:55;;;;;;;3.80;3.50;;;;;;;20.42;54.96;98689.25;5012440;28;20305;-66
2021/11/20 02:21:29;;;;;;;3.93;3.63;;;;;;;20.43;54.88;98682.50;5012618;28;20283;-66
2021/11/20 02:23:56;;;;;;;4.07;3.67;;;;;;;20.42;55.09;98686.72;4994912;28;20572;-68
2021/11/20 02:26:22;;;;;;;3.97;3.67;;;;;;;20.42;54.95;98686.72;5022025;28;20248;-66
2021/11/20 02:28:49;;;;;;;3.80;3.50;;;;;;;20.21;55.04;98647.31;5016008;28;20333;-68
2021/11/20 02:31:16;;;;;;;4.37;3.97;;;;;;;20.42;55.10;98676.50;5019331;28;20203;-66
2021/11/20 02:33:44;;;;;;;4.20;3.90;;;;;;;20.42;54.97;98678.16;5020288;28;20288;-67
2021/11/20 02:36:29;;;;;;;3.53;3.23;;;;;;;20.43;54.96;98677.38;5014260;28;20261;-69
2021/11/20 02:39:13;;;;;;;3.87;3.47;;;;;;;20.43;54.97;98678.25;5012101;28;20225;-66
2021/11/20 02:41:40;;;;;;;3.70;3.40;;;;;;;20.35;54.96;98666.78;5004072;28;20301;-67
2021/11/20 02:44:07;;;;;;;4.20;3.80;;;;;;;20.34;54.98;98659.88;5015886;28;20759;-67
2021/11/20 02:46:37;;;;;;;3.70;3.30;;;;;;;20.30;54.93;98655.44;5015454;28;20618;-66
2021/11/20 02:49:05;;;;;;;3.50;3.20;;;;;;;20.42;54.99;98680.72;5012496;28;20536;-67
2021/11/20 02:51:34;;;;;;;4.20;3.80;;;;;;;20.32;54.84;98655.50;5015260;28;20234;-66
2021/11/20 02:54:08;;;;;;;3.60;3.30;;;;;;;20.43;54.99;98672.28;5003822;28;20724;-66
2021/11/20 02:56:39;;;;;;;3.80;3.50;;;;;;;20.42;54.96;98671.38;5019412;28;20330;-66
2021/11/20 02:59:06;;;;;;;3.80;3.50;;;;;;;20.42;54.90;98676.50;5010175;28;20660;-66
2021/11/20 03:01:35;;;;;;;3.53;3.23;;;;;;;20.42;54.90;98658.63;4996093;28;20738;-69
2021/11/20 03:04:04;;;;;;;4.07;3.67;;;;;;;20.43;54.91;98667.16;5018401;28;20301;-66
2021/11/20 03:06:32;;;;;;;3.60;3.30;;;;;;;20.02;54.94;98590.09;5015010;28;20190;-69
2021/11/20 03:08:58;;;;;;;3.70;3.40;;;;;;;20.42;54.82;98656.06;5016062;28;20218;-69
2021/11/20 03:11:25;;;;;;;3.53;3.23;;;;;;;20.41;54.83;98661.09;5019288;28;20297;-68
2021/11/20 03:13:53;;;;;;;3.80;3.47;;;;;;;20.25;55.06;98625.38;5022228;28;20216;-67
2021/11/20 03:16:20;;;;;;;4.13;3.73;;;;;;;20.36;55.11;98648.09;5012467;28;20248;-67
2021/11/20 03:18:47;;;;;;;3.67;3.30;;;;;;;20.41;55.08;98653.44;5018492;28;20222;-67
2021/11/20 03:21:14;;;;;;;3.80;3.50;;;;;;;20.42;54.90;98648.41;5014219;28;20286;-68
2021/11/20 03:23:48;;;;;;;3.50;3.20;;;;;;;20.15;54.73;98600.16;5011835;28;20281;-68
2021/11/20 03:26:15;;;;;;;3.67;3.37;;;;;;;20.41;54.92;98639.00;4988113;28;20880;-66
2021/11/20 03:28:42;;;;;;;3.47;3.17;;;;;;;20.42;55.37;98639.84;5015510;28;20671;-70
2021/11/20 03:31:08;;;;;;;3.60;3.30;;;;;;;20.13;54.83;98582.19;5015992;28;20203;-67
2021/11/20 03:33:35;;;;;;;3.60;3.30;;;;;;;20.41;55.11;98635.56;5019654;28;20217;-66
2021/11/20 03:36:02;;;;;;;3.77;3.43;;;;;;;20.26;54.75;98609.25;5012547;28;20867;-68
2021/11/20 03:38:29;;;;;;;3.47;3.17;;;;;;;20.35;54.91;98627.59;5012693;28;20236;-67
2021/11/20 03:40:55;;;;;;;3.80;3.43;;;;;;;20.32;54.88;98624.88;5012927;28;20248;-67
2021/11/20 03:43:22;;;;;;;3.33;3.03;;;;;;;20.39;54.86;98635.47;5012676;28;20239;-67
2021/11/20 03:45:49;;;;;;;3.57;3.27;;;;;;;20.35;54.72;98620.81;5018694;28;20627;-68
2021/11/20 03:48:15;;;;;;;3.67;3.37;;;;;;;20.27;54.89;98605.88;5020079;28;20254;-66
2021/11/20 03:50:42;;;;;;;3.47;3.17;;;;;;;20.28;55.01;98600.00;5020649;28;20288;-66
2021/11/20 03:53:09;;;;;;;3.67;3.37;;;;;;;20.31;54.64;98601.00;5012046;28;20264;-68
2021/11/20 03:55:37;;;;;;;3.43;3.13;;;;;;;20.40;54.78;98618.50;5014407;28;20198;-69
2021/11/20 03:58:04;;;;;;;3.60;3.30;;;;;;;20.25;55.08;98585.38;5015931;28;20254;-67
2021/11/20 04:00:36;;;;;;;3.77;3.47;;;;;;;20.37;54.87;98608.13;5014899;28;20202;-62
2021/11/20 04:03:02;;;;;;;3.77;3.47;;;;;;;20.17;54.68;98586.69;5012398;28;20203;-62
2021/11/20 04:05:32;;;;;;;3.83;3.43;;;;;;;19.62;54.82;98491.09;5012262;28;20234;-62
2021/11/20 04:07:59;;;;;;;3.60;3.30;;;;;;;20.26;54.92;98593.94;5016137;28;20281;-61
2021/11/20 04:10:42;;;;;;;3.10;2.87;;;;;;;20.26;54.97;98592.25;5010776;28;20206;-62
2021/11/20 04:13:09;;;;;;;3.37;3.10;;;;;;;20.36;54.84;98599.56;5013923;28;20198;-61
2021/11/20 04:15:35;;;;;;;3.17;2.93;;;;;;;20.40;54.81;98608.28;5021639;28;20226;-62
2021/11/20 04:18:02;;;;;;;3.40;3.10;;;;;;;18.59;54.77;98289.34;5015991;28;20882;-62
2021/11/20 04:20:29;;;;;;;3.10;2.90;;;;;;;20.40;55.09;98606.59;5016974;28;20199;-61
2021/11/20 04:22:56;;;;;;;3.27;2.97;;;;;;;20.23;54.88;98570.81;5018353;28;20205;-62
2021/11/20 04:25:23;;;;;;;3.40;3.10;;;;;;;20.40;54.85;98595.50;5022403;28;20639;-62
2021/11/20 04:27:49;;;;;;;3.63;3.33;;;;;;;20.29;55.03;98582.22;5014892;28;20304;-62
2021/11/20 04:30:16;;;;;;;4.00;3.67;;;;;;;20.35;55.08;98592.72;5019059;28;20194;-62
2021/11/20 04:32:43;;;;;;;3.70;3.40;;;;;;;20.31;54.96;98588.25;5022776;28;20372;-63
2021/11/20 04:35:10;;;;;;;3.10;2.90;;;;;;;20.40;55.08;98600.63;5009285;28;20227;-62
2021/11/20 04:37:36;;;;;;;3.50;3.20;;;;;;;20.40;54.83;98601.47;5024430;28;20580;-62
2021/11/20 04:40:04;;;;;;;3.63;3.33;;;;;;;20.35;54.91;98587.63;5019698;28;20252;-63
2021/11/20 04:42:30;;;;;;;3.07;2.83;;;;;;;19.64;54.63;98469.09;5019554;28;20256;-62
2021/11/20 04:44:57;;;;;;;3.30;3.03;;;;;;;20.23;54.98;98561.47;5022927;28;20229;-61
2021/11/20 04:47:23;;;;;;;3.30;3.00;;;;;;;20.39;55.10;98592.06;5017658;28;20205;-62
2021/11/20 04:49:50;;;;;;;3.63;3.33;;;;;;;20.16;55.05;98550.88;5021554;28;20253;-62
2021/11/20 04:52:17;;;;;;;2.97;2.77;;;;;;;19.76;54.95;98473.94;5020215;28;20249;-62
2021/11/20 04:54:43;;;;;;;3.47;3.17;;;;;;;20.40;54.98;98581.06;5019675;28;20198;-62
2021/11/20 04:57:27;;;;;;;3.37;3.07;;;;;;;20.39;54.92;98573.31;5020231;28;20221;-63
2021/11/20 04:59:54;;;;;;;3.40;3.10;;;;;;;20.37;54.79;98569.84;5020738;28;20308;-62
2021/11/20 05:02:20;;;;;;;3.23;2.93;;;;;;;20.37;54.88;98564.72;5019640;28;20285;-62
2021/11/20 05:04:47;;;;;;;3.53;3.23;;;;;;;20.36;54.60;98562.94;5021014;28;20241;-62
2021/11/20 05:07:14;;;;;;;3.30;3.00;;;;;;;20.22;54.67;98535.88;5016193;28;21528;-62
2021/11/20 05:09:41;;;;;;;3.43;3.13;;;;;;;19.56;54.70;98429.56;5015242;28;20249;-62
2021/11/20 05:12:08;;;;;;;3.70;3.33;;;;;;;20.38;54.91;98574.13;5017521;28;20274;-62
2021/11/20 05:14:36;;;;;;;2.67;2.47;;;;;;;20.02;55.00;98504.22;5024246;28;20206;-62
2021/11/20 05:17:03;;;;;;;3.03;2.83;;;;;;;20.37;54.90;98565.56;5013924;28;20219;-63
2021/11/20 05:19:30;;;;;;;2.87;2.67;;;;;;;20.11;54.60;98527.66;5019158;28;20225;-63
2021/11/20 05:21:56;;;;;;;3.30;3.00;;;;;;;20.31;55.20;98556.75;5015516;28;20229;-61
2021/11/20 05:24:24;;;;;;;3.17;2.87;;;;;;;20.35;54.95;98561.22;5017593;28;20603;-61
2021/11/20 05:26:53;;;;;;;3.23;3.00;;;;;;;20.37;54.88;98559.63;5014301;28;20295;-62
2021/11/20 05:31:49;;;;;;;3.60;3.30;;;;;;;20.29;55.13;98546.47;5018145;28;20264;-63
2021/11/20 05:34:16;;;;;;;3.27;2.97;;;;;;;20.38;55.06;98558.81;5021371;28;20577;-62
2021/11/20 05:36:43;;;;;;;3.30;3.00;;;;;;;20.34;54.91;98546.69;5016009;28;20199;-62
2021/11/20 05:39:10;;;;;;;3.10;2.90;;;;;;;19.93;54.94;98481.63;5018012;28;20301;-62
2021/11/20 05:41:36;;;;;;;3.30;3.00;;;;;;;20.37;55.02;98555.38;5015330;28;20749;-62
2021/11/20 05:44:03;;;;;;;3.60;3.30;;;;;;;20.27;54.85;98539.50;5017837;28;20285;-62
2021/11/20 05:46:30;;;;;;;3.30;3.00;;;;;;;20.25;54.72;98534.31;5021366;28;20226;-61
2021/11/20 05:48:56;;;;;;;3.53;3.23;;;;;;;20.17;54.98;98515.22;5019254;28;20226;-62
2021/11/20 05:51:23;;;;;;;3.20;2.93;;;;;;;20.38;54.88;98551.16;4997581;28;20230;-62
2021/11/20 05:53:50;;;;;;;3.17;2.97;;;;;;;20.20;54.75;98528.13;5017089;28;20650;-62
2021/11/20 05:56:16;;;;;;;3.40;3.10;;;;;;;20.38;55.20;98553.69;5018789;28;20600;-60
2021/11/20 05:59:03;;;;;;;3.27;2.97;;;;;;;20.26;55.17;98531.00;5017922;28;20222;-63
2021/11/20 06:01:29;;;;;;;3.30;3.03;;;;;;;20.38;55.06;98556.25;5002262;28;20238;-62
2021/11/20 06:03:56;;;;;;;3.20;2.93;;;;;;;20.35;54.84;98551.00;5010013;28;20194;-62
2021/11/20 06:06:23;;;;;;;3.07;2.80;;;;;;;20.33;54.84;98547.47;5022578;28;20280;-62
2021/11/20 06:08:49;;;;;;;3.40;3.10;;;;;;;20.38;55.12;98559.69;5017000;28;20276;-62
2021/11/20 06:11:18;;;;;;;3.40;3.10;;;;;;;20.37;55.12;98551.97;5017521;28;20202;-62
2021/11/20 06:13:44;;;;;;;2.77;2.57;;;;;;;20.35;55.05;98544.22;5012204;28;20617;-62
2021/11/20 06:16:11;;;;;;;3.20;2.90;;;;;;;20.36;55.12;98551.06;5018054;28;20210;-61
2021/11/20 06:18:38;;;;;;;3.33;3.03;;;;;;;20.06;54.97;98505.22;5019271;28;20308;-62
2021/11/20 06:21:04;;;;;;;2.97;2.77;;;;;;;20.26;54.97;98535.22;5021283;28;20197;-62
2021/11/20 06:23:31;;;;;;;3.60;3.30;;;;;;;20.38;55.04;98553.69;5016325;28;20209;-60
2021/11/20 06:25:58;;;;;;;2.80;2.60;;;;;;;20.37;54.99;98547.72;5017833;28;20633;-63
2021/11/20 06:28:25;;;;;;;3.10;2.90;;;;;;;20.28;54.95;98521.72;5017532;28;20214;-62
2021/11/20 06:30:51;;;;;;;3.07;2.77;;;;;;;20.30;55.01;98527.78;5009473;28;20643;-63
2021/11/20 06:33:18;;;;;;;3.57;3.03;;;;;;;20.32;55.11;98536.41;5015691;28;20213;-61
2021/11/20 06:35:53;;;;;;;3.33;3.03;;;;;;;20.37;54.79;98546.84;5015448;28;20272;-61
2021/11/20 06:38:20;;;;;;;3.23;3.03;;;;;;;20.36;54.90;98556.19;5016427;28;20690;-61
2021/11/20 06:40:48;;;;;;;3.27;2.97;;;;;;;20.34;55.00;98556.91;5018686;28;20838;-61
2021/11/20 06:43:15;;;;;;;3.10;2.80;;;;;;;20.35;54.81;98562.09;5014569;28;20327;-62
2021/11/20 06:45:44;;;;;;;3.23;2.93;;;;;;;20.35;54.91;98564.66;5012217;28;20262;-62
2021/11/20 06:48:11;;;;;;;3.30;3.00;;;;;;;20.35;54.91;98567.19;5014398;28;20893;-62
2021/11/20 06:50:38;;;;;;;3.10;2.87;;;;;;;20.35;55.04;98568.88;5022261;28;20198;-62
2021/11/20 06:53:05;;;;;;;2.80;2.60;;;;;;;20.35;55.07;98573.97;5011275;28;20231;-61
2021/11/20 06:55:34;;;;;;;3.33;3.03;;;;;;;20.35;54.95;98576.53;5017978;28;20293;-66
2021/11/20 07:00:38;;;;;;;6.37;5.77;;;;;;;20.34;53.93;98572.22;5016672;28;20243;-65
2021/11/20 07:03:11;;;;;;;7.63;6.90;;;;;;;20.24;53.18;98555.56;5011758;28;20198;-66
2021/11/20 07:05:46;;;;;;;8.37;7.57;;;;;;;20.32;52.57;98567.03;4997395;28;20206;-71
2021/11/20 07:08:13;;;;;;;9.63;8.20;;;;;;;20.04;52.37;98522.16;4999270;28;20272;-67
2021/11/20 07:10:40;;;;;;;9.40;8.40;;;;;;;20.01;51.81;98520.31;5000759;28;20702;-67
2021/11/20 07:13:06;;;;;;;10.30;9.27;;;;;;;20.30;51.52;98573.75;5013042;28;20229;-68
2021/11/20 07:15:33;;;;;;;11.93;9.40;;;;;;;20.29;51.06;98577.09;5016478;28;20261;-69
2021/11/20 07:18:00;;;;;;;11.83;10.60;;;;;;;20.28;51.07;98577.88;5008722;28;20726;-66
2021/11/20 07:20:28;;;;;;;12.37;11.07;;;;;;;20.19;50.42;98566.34;5009341;28;20199;-69
2021/11/20 07:22:55;;;;;;;12.83;11.47;;;;;;;20.26;50.29;98578.63;5007891;28;20660;-67
2021/11/20 07:25:24;;;;;;;13.27;11.80;;;;;;;20.10;49.60;98558.19;4999154;28;20646;-69
2021/11/20 07:27:51;;;;;;;14.03;11.93;;;;;;;20.24;49.86;98575.97;5008630;28;20223;-65
2021/11/20 07:30:17;;;;;;;13.37;11.73;;;;;;;20.22;49.38;98579.28;5007312;28;20288;-69
2021/11/20 07:32:44;;;;;;;14.17;12.07;;;;;;;20.14;49.46;98557.56;5014691;28;20225;-70
2021/11/20 07:35:11;;;;;;;12.87;11.07;;;;;;;20.21;49.71;98568.16;4998669;28;20198;-66
2021/11/20 07:37:38;;;;;;;12.93;10.77;;;;;;;20.21;49.91;98568.16;5000601;28;20245;-66
2021/11/20 07:40:05;;;;;;;11.50;10.30;;;;;;;20.16;50.90;98555.97;5015280;28;20249;-67
2021/11/20 07:42:32;;;;;;;13.33;11.47;;;;;;;20.14;51.11;98545.69;5022302;28;20235;-66
2021/11/20 07:45:02;;;;;;;12.10;10.80;;;;;;;20.20;51.22;98546.00;5014524;28;20630;-68
2021/11/20 07:47:29;;;;;;;10.87;9.77;;;;;;;20.21;51.27;98550.31;5013589;28;20737;-69
2021/11/20 07:49:55;;;;;;;11.87;9.63;;;;;;;20.04;51.51;98517.91;5019201;28;20268;-69
2021/11/20 07:52:22;;;;;;;11.37;9.97;;;;;;;20.21;51.60;98550.31;5015466;28;20306;-68
2021/11/20 07:54:49;;;;;;;10.17;8.80;;;;;;;20.13;51.80;98525.19;5015638;28;20289;-65
2021/11/20 07:57:16;;;;;;;9.80;8.73;;;;;;;20.18;51.25;98533.94;5015467;28;20631;-66
2021/11/20 07:59:43;;;;;;;9.23;8.27;;;;;;;20.21;50.91;98537.53;5019292;28;20222;-66
2021/11/20 08:02:09;;;;;;;10.27;8.83;;;;;;;20.21;50.48;98540.09;5013818;28;20282;-69
2021/11/20 08:04:38;;;;;;;10.30;9.20;;;;;;;20.22;50.54;98533.31;5019536;28;20629;-65
2021/11/20 08:07:05;;;;;;;9.10;8.20;;;;;;;20.09;51.13;98508.81;5018057;28;20307;-66
2021/11/20 08:09:32;;;;;;;10.67;9.17;;;;;;;20.21;51.04;98532.44;5014791;28;20242;-65
2021/11/20 08:11:59;;;;;;;10.87;9.77;;;;;;;20.08;51.17;98508.75;5023851;28;20228;-65
2021/11/20 08:14:26;;;;;;;13.20;10.23;;;;;;;20.21;49.90;98527.34;5016692;28;20252;-68
2021/11/20 08:16:53;;;;;;;13.60;10.37;;;;;;;20.22;50.07;98520.56;5010753;28;20786;-65
2021/11/20 08:19:20;;;;;;;12.93;9.90;;;;;;;20.20;50.36;98525.59;5019816;28;20226;-65
2021/11/20 08:21:46;;;;;;;10.73;9.63;;;;;;;20.21;50.48;98522.22;5008932;28;20235;-65
2021/11/20 08:24:14;;;;;;;11.13;9.73;;;;;;;20.20;51.31;98529.81;5016596;28;20230;-65
2021/11/20 08:26:43;;;;;;;11.50;9.57;;;;;;;20.23;51.47;98527.41;5018922;28;20773;-66
2021/11/20 08:29:15;;;;;;;10.83;9.00;;;;;;;20.23;51.54;98527.41;5013001;28;20292;-67
2021/11/20 08:31:44;;;;;;;9.97;8.83;;;;;;;20.20;51.73;98522.16;5013720;28;20232;-66
2021/11/20 08:34:12;;;;;;;10.30;9.10;;;;;;;20.23;51.95;98524.84;5014636;28;20685;-67
2021/11/20 08:36:39;;;;;;;10.70;8.83;;;;;;;19.92;51.92;98466.25;5016080;28;20658;-65
2021/11/20 08:39:06;;;;;;;9.30;8.30;;;;;;;20.25;52.37;98525.81;5014771;28;20242;-66
2021/11/20 08:41:33;;;;;;;8.70;7.90;;;;;;;20.20;52.26;98514.50;5022756;28;20241;-65
2021/11/20 08:44:00;;;;;;;8.97;8.07;;;;;;;20.20;52.45;98510.28;5013917;28;20594;-66
2021/11/20 08:46:26;;;;;;;9.80;8.20;;;;;;;20.24;52.31;98514.72;5020003;28;20228;-65
2021/11/20 08:48:53;;;;;;;8.27;7.47;;;;;;;20.25;52.30;98508.81;5018261;28;20607;-66
2021/11/20 08:51:23;;;;;;;9.33;8.43;;;;;;;20.20;52.39;98494.97;5016576;28;20285;-66
2021/11/20 08:53:50;;;;;;;11.37;7.50;;;;;;;20.24;52.23;98501.97;5013756;28;20241;-65
2021/11/20 08:56:17;;;;;;;10.00;7.37;;;;;;;20.24;52.41;98498.50;4981607;28;20233;-67
2021/11/20 08:58:43;;;;;;;8.03;7.23;;;;;;;20.28;52.35;98498.75;5015973;28;20670;-68
2021/11/20 09:01:22;;;;;;;8.57;7.67;;;;;;;20.26;52.35;98491.81;5011625;28;20281;-65
2021/11/20 09:03:55;;;;;;;7.50;6.80;;;;;;;20.12;52.24;98468.13;4991144;28;20221;-68
2021/11/20 09:06:24;;;;;;;7.87;7.17;;;;;;;20.28;52.30;98493.63;5015157;28;20197;-66
2021/11/20 09:09:22;;;;;;;8.50;7.53;;;;;;;20.29;52.46;98489.41;5017358;28;20226;-65
2021/11/20 09:11:59;;;;;;;8.57;7.67;;;;;;;20.31;52.47;98490.38;5018152;28;20205;-65
2021/11/20 09:14:28;;;;;;;7.53;6.83;;;;;;;20.29;52.69;98485.19;5022143;28;20585;-66
2021/11/20 09:16:59;;;;;;;7.77;6.97;;;;;;;20.30;52.73;98491.16;5013963;28;20230;-66
2021/11/20 09:19:33;;;;;;;7.33;6.63;;;;;;;20.29;52.57;98487.75;5022315;28;20268;-66
2021/11/20 09:22:00;;;;;;;7.73;6.93;;;;;;;20.22;52.77;98475.47;5009602;28;20252;-66
2021/11/20 09:24:30;;;;;;;7.77;6.90;;;;;;;20.31;52.67;98487.81;5009780;28;20218;-66
2021/11/20 09:27:16;;;;;;;7.10;6.17;;;;;;;20.24;52.90;98467.88;5018951;28;20225;-68
2021/11/20 09:29:43;;;;;;;6.93;6.30;;;;;;;20.14;52.84;98455.47;5010899;28;20228;-66
2021/11/20 09:32:10;;;;;;;7.13;6.30;;;;;;;20.29;52.78;98482.66;4991235;28;20286;-69
2021/11/20 09:34:36;;;;;;;6.60;6.00;;;;;;;20.32;52.63;98484.47;5025603;28;20224;-66
2021/11/20 09:37:03;;;;;;;6.50;5.90;;;;;;;19.90;52.77;98404.94;5006635;28;20249;-67
2021/11/20 09:39:32;;;;;;;7.00;6.30;;;;;;;20.32;52.86;98489.56;5019455;28;20882;-66
2021/11/20 09:42:23;;;;;;;6.40;5.80;;;;;;;20.32;52.77;98472.59;5016876;28;20198;-66
2021/11/20 09:44:50;;;;;;;6.70;6.10;;;;;;;20.33;52.80;98476.00;5007350;28;20223;-67
2021/11/20 09:47:28;;;;;;;7.87;5.83;;;;;;;20.32;52.96;98472.59;5005330;28;20233;-65
2021/11/20 09:50:01;;;;;;;6.43;5.77;;;;;;;20.28;52.76;98462.16;5010827;28;20312;-66
2021/11/20 09:52:27;;;;;;;6.73;6.10;;;;;;;20.16;52.84;98434.34;5008829;28;20286;-65
2021/11/20 09:54:54;;;;;;;5.90;5.37;;;;;;;20.28;52.94;98452.78;5004254;28;20264;-67
2021/11/20 09:57:30;;;;;;;6.20;5.60;;;;;;;20.32;52.83;98457.28;5018248;28;20194;-66
2021/11/20 10:00:03;;;;;;;5.83;5.30;;;;;;;20.33;52.88;98455.56;5024780;28;20264;-68
2021/11/20 10:02:45;;;;;;;7.17;5.60;;;;;;;20.32;53.07;98449.59;5023138;28;20851;-65
2021/11/20 10:05:15;;;;;;;7.30;6.07;;;;;;;20.29;52.96;98436.69;5020706;28;20202;-66
2021/11/20 10:07:44;;;;;;;10.77;5.33;;;;;;;20.18;52.95;98414.88;5014213;28;20264;-66
2021/11/20 10:10:31;;;;;;;6.00;5.40;;;;;;;20.32;52.93;98434.28;5012458;28;20327;-68
2021/11/20 10:13:03;;;;;;;5.67;5.17;;;;;;;20.34;53.09;98436.91;5017428;28;20197;-66
2021/11/20 10:15:36;;;;;;;5.87;5.37;;;;;;;20.32;53.13;98429.19;5020701;28;20204;-66
2021/11/20 10:18:23;;;;;;;5.80;5.30;;;;;;;20.32;52.96;98423.19;5000653;28;20265;-69
2021/11/20 10:21:09;;;;;;;5.53;5.03;;;;;;;20.19;52.82;98392.78;4997837;28;20254;-66
2021/11/20 10:23:36;;;;;;;4.87;4.47;;;;;;;20.33;53.00;98420.72;4996685;28;20214;-66
2021/11/20 10:26:39;;;;;;;7.33;4.80;;;;;;;20.32;53.17;98418.97;4997630;28;20222;-66
2021/11/20 10:29:14;;;;;;;7.43;5.43;;;;;;;20.33;53.01;98418.16;5018149;28;20302;-69
2021/11/20 10:31:45;;;;;;;5.40;4.90;;;;;;;20.33;53.12;98414.72;5011854;28;20237;-66
2021/11/20 10:34:28;;;;;;;5.40;4.90;;;;;;;20.33;53.15;98401.97;5018516;28;20206;-66
2021/11/20 10:37:20;;;;;;;5.37;4.87;;;;;;;20.32;52.90;98398.56;5020074;28;20559;-66
2021/11/20 10:39:53;;;;;;;5.30;4.80;;;;;;;20.31;53.11;98391.69;4995529;28;20313;-68
2021/11/20 10:42:39;;;;;;;5.40;4.90;;;;;;;20.24;53.11;98374.34;5020172;28;20709;-67
2021/11/20 10:45:16;;;;;;;4.73;4.33;;;;;;;20.33;53.11;98390.09;4997129;28;20198;-65
2021/11/20 10:47:56;;;;;;;4.57;4.17;;;;;;;20.33;53.15;98384.97;5019351;28;20205;-68
2021/11/20 10:50:46;;;;;;;5.20;4.70;;;;;;;20.34;53.29;98380.75;4997344;28;20671;-66
2021/11/20 10:53:46;;;;;;;4.60;4.20;;;;;;;20.33;53.24;98374.75;5019191;28;20580;-66
2021/11/20 10:56:34;;;;;;;5.03;4.53;;;;;;;20.34;53.25;98368.00;5021010;28;20198;-66
2021/11/20 10:59:27;;;;;;;4.70;4.30;;;;;;;20.33;53.29;98356.91;5019695;28;20649;-67
2021/11/20 11:01:56;;;;;;;4.83;4.33;;;;;;;20.33;53.33;98354.34;5016444;28;20225;-68
2021/11/20 11:04:57;;;;;;;4.73;4.33;;;;;;;20.35;53.39;98362.06;5017877;28;20208;-69
2021/11/20 11:07:36;;;;;;;4.97;4.47;;;;;;;20.21;53.36;98332.47;5012909;28;20288;-68
2021/11/20 11:10:11;;;;;;;5.13;4.33;;;;;;;20.34;53.28;98350.13;5007574;28;20304;-65
2021/11/20 11:12:49;;;;;;;4.93;4.40;;;;;;;20.35;53.49;98344.19;5005027;28;20285;-68
2021/11/20 11:15:26;;;;;;;5.63;5.07;;;;;;;20.27;53.43;98332.75;5021832;28;20619;-67
2021/11/20 11:18:02;;;;;;;4.47;4.07;;;;;;;20.34;53.29;98345.88;5001884;28;20627;-66
2021/11/20 11:20:32;;;;;;;4.73;4.30;;;;;;;20.34;53.50;98345.88;5021196;28;20338;-66
2021/11/20 11:23:18;;;;;;;4.20;3.80;;;;;;;20.34;53.25;98335.66;5018050;28;20225;-67
2021/11/20 11:25:51;;;;;;;4.70;4.30;;;;;;;20.34;53.35;98332.25;4982479;28;20237;-68
2021/11/20 11:28:55;;;;;;;5.07;4.30;;;;;;;20.34;53.35;98332.25;5006577;28;20260;-66
2021/11/20 11:31:38;;;;;;;4.53;4.13;;;;;;;20.34;53.29;98320.34;4975179;28;20642;-68
2021/11/20 11:34:27;;;;;;;4.83;4.27;;;;;;;20.34;53.34;98317.78;5010333;28;20277;-66
2021/11/20 11:37:24;;;;;;;5.20;4.57;;;;;;;20.34;53.25;98311.81;5014226;28;20230;-67
2021/11/20 11:39:54;;;;;;;5.23;4.73;;;;;;;20.34;53.26;98301.63;5011654;28;20309;-67
2021/11/20 11:42:48;;;;;;;4.70;4.20;;;;;;;20.34;53.35;98302.47;5015118;28;20205;-67
2021/11/20 11:45:38;;;;;;;6.27;4.77;;;;;;;20.33;53.35;98295.63;5013790;28;20292;-67
2021/11/20 11:48:18;;;;;;;6.80;4.70;;;;;;;20.19;53.24;98271.13;5010020;28;20679;-66
2021/11/20 11:50:59;;;;;;;5.00;4.17;;;;;;;20.33;53.50;98289.63;5000373;28;20206;-66
2021/11/20 11:53:27;;;;;;;5.00;4.00;;;;;;;20.33;53.43;98282.88;5016924;28;20294;-67
2021/11/20 11:55:55;;;;;;;4.90;4.30;;;;;;;20.30;53.46;98271.63;5012557;28;20336;-68
2021/11/20 11:58:21;;;;;;;4.53;4.13;;;;;;;20.34;53.36;98271.00;5021423;28;20237;-66